Time,TemperatureF,DewpointF,PressureIn,WindDirection,WindDirectionDegrees,WindSpeedMPH,WindSpeedGustMPH,Humidity,HourlyPrecipIn,Conditions,Clouds,dailyrainin,SoftwareType,DateUTC
2013-07-19 00:00:00,74.8,72.6,30.08,SW,229,0.0,0.0,93,0.00,,,0.00,WeatherTracker,2013-07-19 05:00:00,
2013-07-19 00:10:00,74.6,72.4,30.08,SW,229,0.0,0.0,93,0.00,,,0.00,WeatherTracker,2013-07-19 05:10:00,
2013-07-19 00:20:00,74.5,72.3,30.08,SW,229,0.0,0.0,93,0.00,,,0.00,WeatherTracker,2013-07-19 05:20:00,
2013-07-19 00:25:00,74.4,72.2,30.07,SW,229,0.0,0.0,93,0.00,,,0.00,WeatherTracker,2013-07-19 05:25:00,
2013-07-19 00:30:00,74.3,72.1,30.07,SW,229,0.0,0.0,93,0.00,,,0.00,WeatherTracker,2013-07-19 05:30:00,
2013-07-19 00:35:00,74.2,72.0,30.07,SW,229,0.0,0.0,93,0.00,,,0.00,WeatherTracker,2013-07-19 05:35:00,
2013-07-19 00:45:00,73.9,71.7,30.07,SW,229,0.0,0.0,93,0.00,,,0.00,WeatherTracker,2013-07-19 05:45:00,
2013-07-19 00:55:00,73.7,71.5,30.06,SW,229,0.0,0.0,93,0.00,,,0.00,WeatherTracker,2013-07-19 05:55:00,
2013-07-19 01:00:00,73.6,71.8,30.06,SW,229,0.0,0.0,94,0.00,,,0.00,WeatherTracker,2013-07-19 06:00:00,
2013-07-19 01:05:00,73.5,71.7,30.06,SW,229,0.0,0.0,94,0.00,,,0.00,WeatherTracker,2013-07-19 06:05:00,
2013-07-19 01:10:00,73.5,71.3,30.06,SW,229,0.0,0.0,93,0.00,,,0.00,WeatherTracker,2013-07-19 06:10:00,
2013-07-19 01:20:00,73.3,71.5,30.06,SW,229,0.0,0.0,94,0.00,,,0.00,WeatherTracker,2013-07-19 06:20:00,
2013-07-19 01:25:00,73.3,71.5,30.06,SW,229,0.0,0.0,94,0.00,,,0.00,WeatherTracker,2013-07-19 06:25:00,
2013-07-19 01:35:00,73.3,71.5,30.05,SW,229,0.0,0.0,94,0.00,,,0.00,WeatherTracker,2013-07-19 06:35:00,
2013-07-19 01:40:00,73.3,71.5,30.05,SW,229,0.0,0.0,94,0.00,,,0.00,WeatherTracker,2013-07-19 06:40:00,
2013-07-19 01:45:00,73.3,71.8,30.05,SW,229,0.0,0.0,95,0.00,,,0.00,WeatherTracker,2013-07-19 06:45:00,
2013-07-19 01:50:00,73.2,71.7,30.05,SW,229,0.0,0.0,95,0.00,,,0.00,WeatherTracker,2013-07-19 06:50:00,
2013-07-19 02:00:00,73.1,71.6,30.05,SW,229,0.0,0.0,95,0.00,,,0.00,WeatherTracker,2013-07-19 07:00:00,
2013-07-19 02:05:00,73.1,71.6,30.05,SW,229,0.0,0.0,95,0.00,,,0.00,WeatherTracker,2013-07-19 07:05:00,
2013-07-19 02:15:00,72.9,71.4,30.05,SW,229,0.0,0.0,95,0.00,,,0.00,WeatherTracker,2013-07-19 07:15:00,
2013-07-19 02:25:00,72.8,71.3,30.04,SW,229,0.0,0.0,95,0.00,,,0.00,WeatherTracker,2013-07-19 07:25:00,
2013-07-19 02:31:00,72.7,71.2,30.04,SW,229,0.0,0.0,95,0.00,,,0.00,WeatherTracker,2013-07-19 07:31:00,
2013-07-19 02:40:00,72.6,71.1,30.04,SW,229,0.0,0.0,95,0.00,,,0.00,WeatherTracker,2013-07-19 07:40:00,
2013-07-19 02:45:00,72.6,71.1,30.03,SW,229,0.0,0.0,95,0.00,,,0.00,WeatherTracker,2013-07-19 07:45:00,
2013-07-19 02:55:00,72.4,71.2,30.03,SW,229,0.0,0.0,96,0.00,,,0.00,WeatherTracker,2013-07-19 07:55:00,
2013-07-19 03:01:00,72.4,71.2,30.03,SW,229,0.0,0.0,96,0.00,,,0.00,WeatherTracker,2013-07-19 08:01:00,
2013-07-19 03:10:00,72.2,71.0,30.03,SW,229,0.0,0.0,96,0.00,,,0.00,WeatherTracker,2013-07-19 08:10:00,
2013-07-19 03:15:00,72.2,70.7,30.03,SW,229,0.0,0.0,95,0.00,,,0.00,WeatherTracker,2013-07-19 08:15:00,
2013-07-19 03:20:00,72.1,70.6,30.03,SW,229,0.0,0.0,95,0.00,,,0.00,WeatherTracker,2013-07-19 08:20:00,
2013-07-19 03:25:00,72.0,70.5,30.03,SW,229,0.0,0.0,95,0.00,,,0.00,WeatherTracker,2013-07-19 08:25:00,
2013-07-19 03:30:00,72.0,70.5,30.03,SW,229,0.0,0.0,95,0.00,,,0.00,WeatherTracker,2013-07-19 08:30:00,
2013-07-19 03:35:00,72.0,70.8,30.02,SW,229,0.0,0.0,96,0.00,,,0.00,WeatherTracker,2013-07-19 08:35:00,
2013-07-19 03:40:00,72.0,70.8,30.03,SW,229,0.0,0.0,96,0.00,,,0.00,WeatherTracker,2013-07-19 08:40:00,
2013-07-19 03:45:00,72.0,70.8,30.03,SW,229,0.0,0.0,96,0.00,,,0.00,WeatherTracker,2013-07-19 08:45:00,
2013-07-19 03:50:00,71.9,70.7,30.03,SW,229,0.0,0.0,96,0.00,,,0.00,WeatherTracker,2013-07-19 08:50:00,
2013-07-19 03:55:00,71.9,70.7,30.03,SW,229,0.0,0.0,96,0.00,,,0.00,WeatherTracker,2013-07-19 08:55:00,
2013-07-19 04:05:00,71.9,70.7,30.03,SW,229,0.0,0.0,96,0.00,,,0.00,WeatherTracker,2013-07-19 09:05:00,
2013-07-19 04:10:00,71.9,70.7,30.03,SW,229,0.0,0.0,96,0.00,,,0.00,WeatherTracker,2013-07-19 09:10:00,
2013-07-19 04:15:00,71.9,70.7,30.03,SW,229,0.0,0.0,96,0.00,,,0.00,WeatherTracker,2013-07-19 09:15:00,
2013-07-19 04:25:00,71.9,70.7,30.03,SW,229,0.0,0.0,96,0.00,,,0.00,WeatherTracker,2013-07-19 09:25:00,
2013-07-19 04:30:00,71.9,70.7,30.03,SW,229,0.0,0.0,96,0.00,,,0.00,WeatherTracker,2013-07-19 09:30:00,
2013-07-19 04:40:00,71.9,70.7,30.03,SW,229,0.0,0.0,96,0.00,,,0.00,WeatherTracker,2013-07-19 09:40:00,
2013-07-19 04:50:00,71.9,70.7,30.03,SW,229,0.0,0.0,96,0.00,,,0.00,WeatherTracker,2013-07-19 09:50:00,
2013-07-19 05:00:00,71.8,70.6,30.03,SW,229,0.0,0.0,96,0.00,,,0.00,WeatherTracker,2013-07-19 10:00:00,
2013-07-19 05:10:00,71.9,70.7,30.03,SW,229,0.0,0.0,96,0.00,,,0.00,WeatherTracker,2013-07-19 10:10:00,
2013-07-19 05:15:00,71.8,70.6,30.03,SW,229,0.0,0.0,96,0.00,,,0.00,WeatherTracker,2013-07-19 10:15:00,
2013-07-19 05:25:00,71.9,70.7,30.03,SW,229,0.0,0.0,96,0.00,,,0.00,WeatherTracker,2013-07-19 10:25:00,
2013-07-19 05:30:00,71.8,70.6,30.04,SW,229,0.0,0.0,96,0.00,,,0.00,WeatherTracker,2013-07-19 10:30:00,
2013-07-19 05:35:00,71.8,70.6,30.04,SW,229,0.0,0.0,96,0.00,,,0.00,WeatherTracker,2013-07-19 10:35:00,
2013-07-19 05:45:00,71.7,70.5,30.04,SW,229,0.0,0.0,96,0.00,,,0.00,WeatherTracker,2013-07-19 10:45:00,
2013-07-19 05:50:00,71.8,70.6,30.04,SW,229,0.0,0.0,96,0.00,,,0.00,WeatherTracker,2013-07-19 10:50:00,
2013-07-19 05:55:00,71.7,70.5,30.04,SW,229,0.0,0.0,96,0.00,,,0.00,WeatherTracker,2013-07-19 10:55:00,
2013-07-19 06:00:00,71.7,70.8,30.04,SW,229,0.0,0.0,97,0.00,,,0.00,WeatherTracker,2013-07-19 11:00:00,
2013-07-19 06:05:00,71.7,70.8,30.04,SW,229,0.0,0.0,97,0.00,,,0.00,WeatherTracker,2013-07-19 11:05:00,
2013-07-19 06:15:00,71.7,70.8,30.05,SW,229,0.0,0.0,97,0.00,,,0.00,WeatherTracker,2013-07-19 11:15:00,
2013-07-19 06:20:00,71.7,70.8,30.05,SW,229,0.0,0.0,97,0.00,,,0.00,WeatherTracker,2013-07-19 11:20:00,
2013-07-19 06:25:00,71.8,70.9,30.05,SW,229,0.0,0.0,97,0.00,,,0.00,WeatherTracker,2013-07-19 11:25:00,
2013-07-19 06:35:00,72.2,71.3,30.05,SW,229,0.0,0.0,97,0.00,,,0.00,WeatherTracker,2013-07-19 11:35:00,
2013-07-19 06:40:00,72.5,71.6,30.06,SW,229,0.0,0.0,97,0.00,,,0.00,WeatherTracker,2013-07-19 11:40:00,
2013-07-19 06:50:00,72.7,71.8,30.06,SW,229,0.0,0.0,97,0.00,,,0.00,WeatherTracker,2013-07-19 11:50:00,
2013-07-19 07:00:00,73.1,72.2,30.06,SW,229,0.0,0.0,97,0.00,,,0.00,WeatherTracker,2013-07-19 12:00:00,
2013-07-19 07:10:00,73.5,72.6,30.07,SW,229,0.0,0.0,97,0.00,,,0.00,WeatherTracker,2013-07-19 12:10:00,
2013-07-19 07:15:00,73.7,72.8,30.07,SW,229,0.0,0.0,97,0.00,,,0.00,WeatherTracker,2013-07-19 12:15:00,
2013-07-19 07:25:00,73.9,73.0,30.07,SW,229,0.0,0.0,97,0.00,,,0.00,WeatherTracker,2013-07-19 12:25:00,
2013-07-19 07:30:00,73.8,72.9,30.08,SW,229,0.0,1.0,97,0.00,,,0.00,WeatherTracker,2013-07-19 12:30:00,
2013-07-19 07:35:00,73.6,72.7,30.08,SW,229,0.0,2.0,97,0.00,,,0.00,WeatherTracker,2013-07-19 12:35:00,
2013-07-19 07:40:00,73.7,72.8,30.08,SW,229,0.0,2.0,97,0.00,,,0.00,WeatherTracker,2013-07-19 12:40:00,
2013-07-19 07:45:00,73.8,72.9,30.08,SW,229,0.0,0.0,97,0.00,,,0.00,WeatherTracker,2013-07-19 12:45:00,
2013-07-19 07:50:00,73.9,73.0,30.08,SW,229,0.0,0.0,97,0.00,,,0.00,WeatherTracker,2013-07-19 12:50:00,
2013-07-19 08:00:00,74.1,73.2,30.08,SW,229,0.0,0.0,97,0.00,,,0.00,WeatherTracker,2013-07-19 13:00:00,
2013-07-19 08:10:00,74.3,73.4,30.08,SW,229,0.0,0.0,97,0.00,,,0.00,WeatherTracker,2013-07-19 13:10:00,
2013-07-19 08:20:00,74.9,74.0,30.09,NNW,330,0.0,2.0,97,0.00,,,0.00,WeatherTracker,2013-07-19 13:20:00,
2013-07-19 08:25:00,75.0,73.8,30.09,NNW,330,0.0,3.0,96,0.00,,,0.00,WeatherTracker,2013-07-19 13:25:00,
2013-07-19 08:30:00,75.5,74.3,30.09,NNW,330,0.0,3.0,96,0.00,,,0.00,WeatherTracker,2013-07-19 13:30:00,
2013-07-19 08:40:00,76.0,74.5,30.09,NNW,330,0.0,3.0,95,0.00,,,0.00,WeatherTracker,2013-07-19 13:40:00,
2013-07-19 08:50:00,77.1,74.9,30.09,NNW,330,3.0,3.0,93,0.00,,,0.00,WeatherTracker,2013-07-19 13:50:00,
2013-07-19 09:00:00,78.6,74.4,30.09,NNE,15,3.0,3.0,87,0.00,,,0.00,WeatherTracker,2013-07-19 14:00:00,
2013-07-19 09:10:00,80.4,75.1,30.09,NNE,15,0.0,4.0,84,0.00,,,0.00,WeatherTracker,2013-07-19 14:10:00,
2013-07-19 09:20:00,82.4,76.0,30.09,NNW,345,3.0,4.0,81,0.00,,,0.00,WeatherTracker,2013-07-19 14:20:00,
2013-07-19 09:25:00,83.2,76.0,30.09,NNW,329,3.0,4.0,79,0.00,,,0.00,WeatherTracker,2013-07-19 14:25:00,
2013-07-19 09:35:00,84.1,75.3,30.09,NNW,331,2.0,4.0,75,0.00,,,0.00,WeatherTracker,2013-07-19 14:35:00,
2013-07-19 09:45:00,84.2,74.6,30.09,NNW,334,0.0,4.0,73,0.00,,,0.00,WeatherTracker,2013-07-19 14:45:00,
2013-07-19 09:50:00,84.3,74.7,30.08,NNW,334,0.0,2.0,73,0.00,,,0.00,WeatherTracker,2013-07-19 14:50:00,
2013-07-19 09:55:00,84.5,74.9,30.08,NNW,334,0.0,3.0,73,0.00,,,0.00,WeatherTracker,2013-07-19 14:55:00,
2013-07-19 10:05:00,84.1,74.1,30.08,NNW,334,0.0,2.0,72,0.00,,,0.00,WeatherTracker,2013-07-19 15:05:00,
2013-07-19 10:10:00,83.9,73.9,30.09,NNW,334,0.0,0.0,72,0.00,,,0.00,WeatherTracker,2013-07-19 15:10:00,
2013-07-19 10:15:00,83.8,74.6,30.08,NNW,334,0.0,1.0,74,0.00,,,0.00,WeatherTracker,2013-07-19 15:15:00,
2013-07-19 10:25:00,83.9,75.1,30.09,NNW,334,1.0,3.0,75,0.00,,,0.00,WeatherTracker,2013-07-19 15:25:00,
2013-07-19 10:30:00,84.0,75.6,30.08,NNW,334,1.0,3.0,76,0.00,,,0.00,WeatherTracker,2013-07-19 15:30:00,
2013-07-19 10:35:00,83.8,75.4,30.08,NNW,334,3.0,4.0,76,0.00,,,0.00,WeatherTracker,2013-07-19 15:35:00,
2013-07-19 10:45:00,83.9,75.1,30.08,NNW,335,3.0,4.0,75,0.00,,,0.00,WeatherTracker,2013-07-19 15:45:00,
2013-07-19 10:50:00,84.2,74.6,30.08,NNW,335,3.0,4.0,73,0.00,,,0.00,WeatherTracker,2013-07-19 15:50:00,
2013-07-19 11:00:00,85.7,74.8,30.08,WSW,241,2.0,5.0,70,0.00,,,0.00,WeatherTracker,2013-07-19 16:00:00,
2013-07-19 11:05:00,85.9,75.4,30.08,NW,319,1.0,5.0,71,0.00,,,0.00,WeatherTracker,2013-07-19 16:05:00,
2013-07-19 11:15:00,85.9,75.4,30.08,NNE,26,0.0,5.0,71,0.00,,,0.00,WeatherTracker,2013-07-19 16:15:00,
2013-07-19 11:20:00,85.6,74.7,30.08,North,355,1.0,6.0,70,0.00,,,0.00,WeatherTracker,2013-07-19 16:20:00,
2013-07-19 11:25:00,85.4,75.3,30.07,North,355,1.0,6.0,72,0.00,,,0.00,WeatherTracker,2013-07-19 16:25:00,
2013-07-19 11:35:00,85.6,76.3,30.07,North,360,5.0,5.0,74,0.00,,,0.00,WeatherTracker,2013-07-19 16:35:00,
2013-07-19 11:40:00,85.9,75.8,30.07,NW,312,5.0,6.0,72,0.00,,,0.00,WeatherTracker,2013-07-19 16:40:00,
2013-07-19 11:45:00,86.1,76.0,30.07,NNW,347,1.0,6.0,72,0.00,,,0.00,WeatherTracker,2013-07-19 16:45:00,
2013-07-19 11:50:00,86.3,75.8,30.06,North,5,1.0,5.0,71,0.00,,,0.00,WeatherTracker,2013-07-19 16:50:00,
2013-07-19 11:55:00,86.3,76.6,30.06,North,5,3.0,6.0,73,0.00,,,0.00,WeatherTracker,2013-07-19 16:55:00,
2013-07-19 12:05:00,86.4,76.7,30.06,NNW,346,5.0,6.0,73,0.00,,,0.00,WeatherTracker,2013-07-19 17:05:00,
2013-07-19 12:15:00,86.8,77.5,30.05,NNW,340,1.0,7.0,74,0.00,,,0.00,WeatherTracker,2013-07-19 17:15:00,
2013-07-19 12:20:00,87.2,76.6,30.05,NE,56,2.0,5.0,71,0.00,,,0.00,WeatherTracker,2013-07-19 17:20:00,
2013-07-19 12:30:00,87.5,76.5,30.05,NNE,14,2.0,5.0,70,0.00,,,0.00,WeatherTracker,2013-07-19 17:30:00,
2013-07-19 12:40:00,87.8,75.9,30.04,NW,314,3.0,4.0,68,0.00,,,0.00,WeatherTracker,2013-07-19 17:40:00,
2013-07-19 12:50:00,88.4,76.5,30.03,NNE,31,0.0,6.0,68,0.00,,,0.00,WeatherTracker,2013-07-19 17:50:00,
2013-07-19 12:55:00,88.5,77.0,30.03,NNW,344,4.0,5.0,69,0.00,,,0.00,WeatherTracker,2013-07-19 17:55:00,
2013-07-19 13:00:00,88.6,76.2,30.03,NE,45,3.0,6.0,67,0.00,,,0.00,WeatherTracker,2013-07-19 18:00:00,
2013-07-19 13:10:00,86.9,75.5,30.03,SSE,155,4.0,11.0,69,0.02,,,0.02,WeatherTracker,2013-07-19 18:10:00,
2013-07-19 13:20:00,82.8,76.0,30.03,SE,135,0.0,11.0,80,0.09,,,0.09,WeatherTracker,2013-07-19 18:20:00,
2013-07-19 13:25:00,81.2,75.9,30.02,SE,135,0.0,5.0,84,0.09,,,0.09,WeatherTracker,2013-07-19 18:25:00,
2013-07-19 13:35:00,80.5,76.6,30.02,ESE,115,1.0,5.0,88,0.09,,,0.09,WeatherTracker,2013-07-19 18:35:00,
2013-07-19 13:40:00,80.3,76.8,30.02,SSW,207,2.0,7.0,89,0.09,,,0.09,WeatherTracker,2013-07-19 18:40:00,
2013-07-19 13:45:00,80.2,76.7,30.02,SSW,207,0.0,7.0,89,0.09,,,0.09,WeatherTracker,2013-07-19 18:45:00,
2013-07-19 13:55:00,81.5,78.3,30.02,SE,146,0.0,3.0,90,0.09,,,0.09,WeatherTracker,2013-07-19 18:55:00,
2013-07-19 14:00:00,83.3,79.4,30.02,SSE,152,1.0,6.0,88,0.09,,,0.09,WeatherTracker,2013-07-19 19:00:00,
2013-07-19 14:10:00,84.0,78.3,30.02,SSE,153,0.0,4.0,83,0.07,,,0.09,WeatherTracker,2013-07-19 19:10:00,
2013-07-19 14:15:00,83.6,77.5,30.01,SSE,153,0.0,4.0,82,0.02,,,0.09,WeatherTracker,2013-07-19 19:15:00,
2013-07-19 14:25:00,83.2,77.5,30.00,SSE,153,0.0,4.0,83,0.00,,,0.09,WeatherTracker,2013-07-19 19:25:00,
2013-07-19 14:35:00,83.7,77.6,30.01,SSE,153,2.0,4.0,82,0.00,,,0.09,WeatherTracker,2013-07-19 19:35:00,
2013-07-19 14:45:00,83.6,77.5,30.01,South,178,5.0,5.0,82,0.00,,,0.09,WeatherTracker,2013-07-19 19:45:00,
2013-07-19 14:50:00,83.2,76.7,30.01,SSW,198,2.0,6.0,81,0.00,,,0.09,WeatherTracker,2013-07-19 19:50:00,
2013-07-19 15:00:00,82.6,76.9,30.01,SSW,198,0.0,3.0,83,0.00,,,0.09,WeatherTracker,2013-07-19 20:00:00,
2013-07-19 15:05:00,82.3,77.0,30.00,SSW,198,0.0,3.0,84,0.00,,,0.09,WeatherTracker,2013-07-19 20:05:00,
2013-07-19 15:15:00,81.5,76.5,30.00,SSW,198,0.0,0.0,85,0.00,,,0.09,WeatherTracker,2013-07-19 20:15:00,
2013-07-19 15:20:00,81.1,76.5,30.00,SW,224,3.0,6.0,86,0.00,,,0.09,WeatherTracker,2013-07-19 20:20:00,
2013-07-19 15:30:00,80.2,76.3,30.00,West,261,3.0,10.0,88,0.00,,,0.09,WeatherTracker,2013-07-19 20:30:00,
2013-07-19 15:40:00,79.3,75.4,30.00,WSW,252,6.0,12.0,88,0.00,,,0.09,WeatherTracker,2013-07-19 20:40:00,
2013-07-19 15:45:00,78.9,75.0,30.00,SW,226,3.0,8.0,88,0.00,,,0.09,WeatherTracker,2013-07-19 20:45:00,
2013-07-19 15:55:00,78.4,74.5,30.01,South,181,5.0,7.0,88,0.00,,,0.09,WeatherTracker,2013-07-19 20:55:00,
2013-07-19 16:00:00,78.0,74.1,30.01,SW,220,4.0,8.0,88,0.00,,,0.09,WeatherTracker,2013-07-19 21:00:00,
2013-07-19 16:10:00,77.5,74.0,30.02,SSW,211,3.0,7.0,89,0.00,,,0.09,WeatherTracker,2013-07-19 21:10:00,
2013-07-19 16:15:00,77.3,73.8,30.02,SSW,213,4.0,5.0,89,0.00,,,0.09,WeatherTracker,2013-07-19 21:15:00,
2013-07-19 16:20:00,77.1,73.6,30.02,SW,219,3.0,8.0,89,0.00,,,0.09,WeatherTracker,2013-07-19 21:20:00,
2013-07-19 16:25:00,77.0,73.8,30.02,WSW,240,4.0,8.0,90,0.00,,,0.09,WeatherTracker,2013-07-19 21:25:00,
2013-07-19 16:30:00,76.8,73.6,30.01,SSW,207,4.0,8.0,90,0.00,,,0.09,WeatherTracker,2013-07-19 21:30:00,
2013-07-19 16:35:00,76.6,73.8,30.01,SSW,213,4.0,6.0,91,0.00,,,0.09,WeatherTracker,2013-07-19 21:35:00,
2013-07-19 16:45:00,76.1,73.3,30.01,SSW,203,3.0,9.0,91,0.00,,,0.09,WeatherTracker,2013-07-19 21:45:00,
2013-07-19 16:55:00,75.6,72.8,30.00,SW,221,4.0,8.0,91,0.00,,,0.09,WeatherTracker,2013-07-19 21:55:00,
2013-07-19 17:05:00,75.3,72.5,29.98,SW,223,3.0,8.0,91,0.00,,,0.09,WeatherTracker,2013-07-19 22:05:00,
2013-07-19 17:15:00,75.1,72.6,29.98,WSW,239,1.0,5.0,92,0.00,,,0.09,WeatherTracker,2013-07-19 22:15:00,
2013-07-19 17:20:00,74.9,72.4,29.98,WSW,239,0.0,5.0,92,0.00,,,0.09,WeatherTracker,2013-07-19 22:20:00,
2013-07-19 17:30:00,74.9,72.7,29.98,WSW,240,3.0,4.0,93,0.00,,,0.09,WeatherTracker,2013-07-19 22:30:00,
2013-07-19 17:40:00,74.9,72.7,29.99,WSW,240,0.0,4.0,93,0.00,,,0.09,WeatherTracker,2013-07-19 22:40:00,
2013-07-19 17:45:00,74.9,72.7,29.98,WSW,240,0.0,4.0,93,0.00,,,0.09,WeatherTracker,2013-07-19 22:45:00,
2013-07-19 17:50:00,75.0,72.8,29.98,SSW,193,2.0,4.0,93,0.00,,,0.09,WeatherTracker,2013-07-19 22:50:00,
2013-07-19 18:00:00,75.2,73.0,29.98,WSW,245,2.0,5.0,93,0.00,,,0.09,WeatherTracker,2013-07-19 23:00:00,
2013-07-19 18:05:00,75.2,73.0,29.98,SW,231,1.0,5.0,93,0.00,,,0.09,WeatherTracker,2013-07-19 23:05:00,
2013-07-19 18:15:00,75.4,73.2,29.99,SW,231,2.0,4.0,93,0.00,,,0.09,WeatherTracker,2013-07-19 23:15:00,
2013-07-19 18:20:00,75.4,73.2,29.98,SW,231,0.0,4.0,93,0.00,,,0.09,WeatherTracker,2013-07-19 23:20:00,
2013-07-19 18:25:00,75.4,73.2,29.98,SW,231,0.0,4.0,93,0.00,,,0.09,WeatherTracker,2013-07-19 23:25:00,
2013-07-19 18:35:00,75.5,73.3,29.98,SW,231,0.0,3.0,93,0.00,,,0.09,WeatherTracker,2013-07-19 23:35:00,
2013-07-19 18:40:00,75.5,73.3,29.98,SW,231,2.0,2.0,93,0.00,,,0.09,WeatherTracker,2013-07-19 23:40:00,
2013-07-19 18:50:00,75.5,73.3,29.98,SE,126,0.0,2.0,93,0.00,,,0.09,WeatherTracker,2013-07-19 23:50:00,
2013-07-19 18:55:00,75.5,73.3,29.98,SE,126,0.0,0.0,93,0.00,,,0.09,WeatherTracker,2013-07-19 23:55:00,
2013-07-19 19:05:00,75.5,73.3,29.98,SE,126,0.0,0.0,93,0.00,,,0.09,WeatherTracker,2013-07-20 00:05:00,
2013-07-19 19:15:00,75.4,73.2,29.98,SE,126,0.0,0.0,93,0.00,,,0.09,WeatherTracker,2013-07-20 00:15:00,
2013-07-19 19:20:00,75.4,73.2,29.97,SE,126,0.0,0.0,93,0.00,,,0.09,WeatherTracker,2013-07-20 00:20:00,
2013-07-19 19:30:00,75.4,73.2,29.98,SE,126,0.0,0.0,93,0.00,,,0.09,WeatherTracker,2013-07-20 00:30:00,
2013-07-19 19:35:00,75.3,73.1,29.98,SE,126,0.0,0.0,93,0.00,,,0.09,WeatherTracker,2013-07-20 00:35:00,
2013-07-19 19:40:00,75.1,73.2,29.99,ESE,115,0.0,4.0,94,0.00,,,0.09,WeatherTracker,2013-07-20 00:40:00,
2013-07-19 19:45:00,74.9,73.1,29.98,ESE,115,0.0,4.0,94,0.00,,,0.09,WeatherTracker,2013-07-20 00:45:00,
2013-07-19 19:50:00,74.8,73.0,29.98,ESE,115,0.0,0.0,94,0.00,,,0.09,WeatherTracker,2013-07-20 00:50:00,
2013-07-19 19:55:00,74.7,72.9,29.98,ESE,115,0.0,0.0,94,0.00,,,0.09,WeatherTracker,2013-07-20 00:55:00,
2013-07-19 20:05:00,74.6,72.8,29.98,ESE,115,0.0,0.0,94,0.00,,,0.09,WeatherTracker,2013-07-20 01:05:00,
2013-07-19 20:15:00,74.4,72.6,29.99,ESE,115,0.0,0.0,94,0.00,,,0.09,WeatherTracker,2013-07-20 01:15:00,
2013-07-19 20:20:00,74.3,72.5,29.98,ESE,115,0.0,0.0,94,0.00,,,0.09,WeatherTracker,2013-07-20 01:20:00,
2013-07-19 20:30:00,74.2,72.4,29.99,ESE,115,0.0,0.0,94,0.00,,,0.09,WeatherTracker,2013-07-20 01:30:00,
2013-07-19 20:35:00,74.2,72.4,29.99,ESE,115,0.0,0.0,94,0.00,,,0.09,WeatherTracker,2013-07-20 01:35:00,
2013-07-19 20:40:00,74.1,72.3,29.99,ESE,115,0.0,0.0,94,0.00,,,0.09,WeatherTracker,2013-07-20 01:40:00,
2013-07-19 20:50:00,73.9,72.1,29.99,ESE,115,0.0,0.0,94,0.00,,,0.09,WeatherTracker,2013-07-20 01:50:00,
2013-07-19 21:00:00,73.8,72.0,29.99,ESE,115,0.0,0.0,94,0.00,,,0.09,WeatherTracker,2013-07-20 02:00:00,
2013-07-19 21:05:00,73.7,72.2,29.99,ESE,115,0.0,0.0,95,0.00,,,0.09,WeatherTracker,2013-07-20 02:05:00,
2013-07-19 21:10:00,73.7,72.2,30.00,ESE,115,0.0,0.0,95,0.00,,,0.09,WeatherTracker,2013-07-20 02:10:00,
2013-07-19 21:20:00,73.6,72.1,30.00,ESE,115,0.0,0.0,95,0.00,,,0.09,WeatherTracker,2013-07-20 02:20:00,
2013-07-19 21:25:00,73.6,72.1,30.00,ESE,115,2.0,0.0,95,0.00,,,0.09,WeatherTracker,2013-07-20 02:25:00,
2013-07-19 21:30:00,73.6,72.1,30.01,ESE,115,0.0,4.0,95,0.00,,,0.09,WeatherTracker,2013-07-20 02:30:00,
2013-07-19 21:40:00,73.6,72.1,30.01,ESE,115,0.0,2.0,95,0.00,,,0.09,WeatherTracker,2013-07-20 02:40:00,
2013-07-19 21:45:00,73.6,72.1,30.01,ESE,115,0.0,1.0,95,0.00,,,0.09,WeatherTracker,2013-07-20 02:45:00,
2013-07-19 21:55:00,73.6,72.1,30.02,ESE,115,0.0,0.0,95,0.00,,,0.09,WeatherTracker,2013-07-20 02:55:00,
2013-07-19 22:00:00,73.5,72.0,30.02,ESE,115,0.0,0.0,95,0.00,,,0.09,WeatherTracker,2013-07-20 03:00:00,
2013-07-19 22:10:00,73.6,72.4,30.02,ESE,115,0.0,2.0,96,0.00,,,0.09,WeatherTracker,2013-07-20 03:10:00,
2013-07-19 22:20:00,73.6,72.4,30.02,ESE,115,0.0,1.0,96,0.00,,,0.09,WeatherTracker,2013-07-20 03:20:00,
2013-07-19 22:25:00,73.6,72.4,30.02,ESE,115,0.0,0.0,96,0.00,,,0.09,WeatherTracker,2013-07-20 03:25:00,
2013-07-19 22:30:00,73.6,72.4,30.02,ESE,115,0.0,0.0,96,0.00,,,0.09,WeatherTracker,2013-07-20 03:30:00,
2013-07-19 22:40:00,73.7,72.5,30.03,ESE,115,0.0,5.0,96,0.00,,,0.09,WeatherTracker,2013-07-20 03:40:00,
2013-07-19 22:50:00,73.7,72.5,30.02,ESE,115,0.0,2.0,96,0.00,,,0.09,WeatherTracker,2013-07-20 03:50:00,
2013-07-19 23:00:00,73.6,72.4,30.02,ESE,115,0.0,0.0,96,0.00,,,0.09,WeatherTracker,2013-07-20 04:00:00,
2013-07-19 23:05:00,73.6,72.4,30.02,ESE,115,0.0,0.0,96,0.00,,,0.09,WeatherTracker,2013-07-20 04:05:00,
2013-07-19 23:10:00,73.5,72.3,30.02,ESE,115,0.0,0.0,96,0.00,,,0.09,WeatherTracker,2013-07-20 04:10:00,
2013-07-19 23:15:00,73.5,72.3,30.03,ESE,115,0.0,0.0,96,0.00,,,0.09,WeatherTracker,2013-07-20 04:15:00,
2013-07-19 23:20:00,73.5,72.3,30.03,ESE,115,0.0,0.0,96,0.00,,,0.09,WeatherTracker,2013-07-20 04:20:00,
2013-07-19 23:25:00,73.4,72.2,30.02,ESE,115,0.0,0.0,96,0.00,,,0.09,WeatherTracker,2013-07-20 04:25:00,
2013-07-19 23:30:00,73.4,72.2,30.02,ESE,115,0.0,0.0,96,0.00,,,0.09,WeatherTracker,2013-07-20 04:30:00,
2013-07-19 23:40:00,73.4,72.2,30.02,ESE,115,0.0,0.0,96,0.00,,,0.09,WeatherTracker,2013-07-20 04:40:00,
2013-07-19 23:50:00,73.4,72.2,30.03,ESE,115,0.0,0.0,96,0.00,,,0.09,WeatherTracker,2013-07-20 04:50:00,